Airfield :
LOGIN :

Register | Disclaimer

   EN    FR    IT 

 










Legend :    VFR   Marginal VFR   IFR   Intensive IFR   Very Intensive IFR
Visi :
Ceiling :
>= 8 km
>= 3000ft
5 to 8 km
1000 to 3000 ft
1500m to 5 km
500 to 1000 ft
800 to 1500m
200 to 500 ft
< 800m
< 200 ft
Symbols :   Thunderstorms  Fog  Heavy snow  Heavy precipitations  Wind > 20 kt
SIGMETs :     Misc.  Thunderstorms  Icing  Turbulence  Mountain Waves  Volcanic Ashes






- Airport Elevation : 600 ft
- IATA code : VIE


LOWW - Vienna Schwechat

CURRENT METAR :
  • 102320Z 34005KT CAVOK M00/M03 Q1025 NOSIG

EXPIRED METARs :
  • 102250Z 35004KT 310V050 CAVOK 00/M03 Q1025 NOSIG
  • 102220Z 33007KT CAVOK 00/M03 Q1025 NOSIG
  • 102150Z 32005KT CAVOK 01/M03 Q1025 NOSIG
  • 102120Z 31007KT CAVOK 01/M03 Q1025 NOSIG
  • 102050Z 31011KT CAVOK 02/M03 Q1025 NOSIG

TAF TAF LOWW
Valid from the 11 at 00:00 until the 12 at 06:00 UTC


102315Z 1100/1206 32006KT CAVOK TX02/1113Z TNM04/1203Z
PROB30 1105/1108 VRB02KT 6000 MIFG NSC
BECMG 1106/1109 14007KT
BECMG 1114/1116 16012KT
BECMG 1123/1201 VRB02KT
TEMPO 1203/1206 5000 BR BKN050



MET'MAP, your aeronautical weather chart ! - Copyright ORBIFLY December 2007 - Disclaimer

ORBIFLY MET'MAP TEAM :

Programming & Development : Alexandra Zaïnal
Concept & original design : Baudouin d'Aumeries
Assistance for programming : Marc-Olivier Méhu
Technical & hardware support : Manuel Goepfert

Contact : metmap@orbifly.com




SOURCES & CREDITS :

   NOAA